sensor_id;sensor_type;location;lat;lon;timestamp;P1;durP1;ratioP1;P2;durP2;ratioP2
6117;SDS011;3089;48.202;11.510;2023-08-24T00:00:26;7.63;;;4.50;;
6117;SDS011;3089;48.202;11.510;2023-08-24T00:02:54;6.67;;;3.87;;
6117;SDS011;3089;48.202;11.510;2023-08-24T00:05:22;8.70;;;4.50;;
6117;SDS011;3089;48.202;11.510;2023-08-24T00:07:50;6.60;;;4.63;;
6117;SDS011;3089;48.202;11.510;2023-08-24T00:10:20;8.80;;;4.87;;
6117;SDS011;3089;48.202;11.510;2023-08-24T00:12:48;9.30;;;5.10;;
6117;SDS011;3089;48.202;11.510;2023-08-24T00:15:16;8.80;;;4.60;;
6117;SDS011;3089;48.202;11.510;2023-08-24T00:17:44;8.50;;;4.60;;
6117;SDS011;3089;48.202;11.510;2023-08-24T00:20:12;8.70;;;4.20;;
6117;SDS011;3089;48.202;11.510;2023-08-24T00:22:40;6.60;;;4.93;;
6117;SDS011;3089;48.202;11.510;2023-08-24T00:25:08;9.10;;;4.30;;
6117;SDS011;3089;48.202;11.510;2023-08-24T00:27:38;7.10;;;4.10;;
6117;SDS011;3089;48.202;11.510;2023-08-24T00:30:06;7.10;;;5.10;;
6117;SDS011;3089;48.202;11.510;2023-08-24T00:32:35;11.13;;;4.67;;
6117;SDS011;3089;48.202;11.510;2023-08-24T00:35:03;11.80;;;5.33;;
6117;SDS011;3089;48.202;11.510;2023-08-24T00:37:32;5.93;;;4.20;;
6117;SDS011;3089;48.202;11.510;2023-08-24T00:40:01;7.13;;;4.33;;
6117;SDS011;3089;48.202;11.510;2023-08-24T00:42:31;6.43;;;4.17;;
6117;SDS011;3089;48.202;11.510;2023-08-24T00:45:00;15.37;;;5.30;;
6117;SDS011;3089;48.202;11.510;2023-08-24T00:47:29;5.50;;;3.83;;
6117;SDS011;3089;48.202;11.510;2023-08-24T00:49:57;8.80;;;4.37;;
6117;SDS011;3089;48.202;11.510;2023-08-24T00:52:25;6.90;;;4.43;;
6117;SDS011;3089;48.202;11.510;2023-08-24T00:54:54;9.17;;;4.63;;
6117;SDS011;3089;48.202;11.510;2023-08-24T00:57:22;9.90;;;4.27;;
6117;SDS011;3089;48.202;11.510;2023-08-24T00:59:50;9.13;;;4.53;;
6117;SDS011;3089;48.202;11.510;2023-08-24T01:02:19;8.07;;;4.90;;
6117;SDS011;3089;48.202;11.510;2023-08-24T01:04:47;7.23;;;4.40;;
6117;SDS011;3089;48.202;11.510;2023-08-24T01:07:15;6.27;;;4.40;;
6117;SDS011;3089;48.202;11.510;2023-08-24T01:09:44;7.07;;;4.23;;
6117;SDS011;3089;48.202;11.510;2023-08-24T01:12:14;8.67;;;4.47;;
6117;SDS011;3089;48.202;11.510;2023-08-24T01:14:50;7.10;;;4.33;;
6117;SDS011;3089;48.202;11.510;2023-08-24T01:17:26;8.67;;;5.00;;
6117;SDS011;3089;48.202;11.510;2023-08-24T01:19:56;8.57;;;4.47;;
6117;SDS011;3089;48.202;11.510;2023-08-24T01:22:31;7.40;;;5.10;;
6117;SDS011;3089;48.202;11.510;2023-08-24T01:25:05;7.33;;;4.77;;
6117;SDS011;3089;48.202;11.510;2023-08-24T01:27:36;6.23;;;4.73;;
6117;SDS011;3089;48.202;11.510;2023-08-24T01:30:05;7.13;;;5.17;;
6117;SDS011;3089;48.202;11.510;2023-08-24T01:32:34;7.80;;;4.30;;
6117;SDS011;3089;48.202;11.510;2023-08-24T01:35:04;7.77;;;4.90;;
6117;SDS011;3089;48.202;11.510;2023-08-24T01:37:35;7.90;;;4.07;;
6117;SDS011;3089;48.202;11.510;2023-08-24T01:40:05;7.20;;;4.70;;
6117;SDS011;3089;48.202;11.510;2023-08-24T01:42:39;6.57;;;4.50;;
6117;SDS011;3089;48.202;11.510;2023-08-24T01:45:12;6.87;;;4.80;;
6117;SDS011;3089;48.202;11.510;2023-08-24T01:47:42;8.00;;;4.87;;
6117;SDS011;3089;48.202;11.510;2023-08-24T01:50:10;8.60;;;4.93;;
6117;SDS011;3089;48.202;11.510;2023-08-24T01:52:39;6.40;;;4.67;;
6117;SDS011;3089;48.202;11.510;2023-08-24T01:55:08;8.50;;;4.67;;
6117;SDS011;3089;48.202;11.510;2023-08-24T01:57:37;6.60;;;4.60;;
6117;SDS011;3089;48.202;11.510;2023-08-24T02:00:07;6.10;;;4.60;;
6117;SDS011;3089;48.202;11.510;2023-08-24T02:02:35;8.83;;;5.27;;
6117;SDS011;3089;48.202;11.510;2023-08-24T02:05:04;6.77;;;5.10;;
6117;SDS011;3089;48.202;11.510;2023-08-24T02:07:32;7.07;;;4.80;;
6117;SDS011;3089;48.202;11.510;2023-08-24T02:10:00;6.50;;;4.87;;
6117;SDS011;3089;48.202;11.510;2023-08-24T02:12:28;10.87;;;5.00;;
6117;SDS011;3089;48.202;11.510;2023-08-24T02:14:57;6.53;;;5.00;;
6117;SDS011;3089;48.202;11.510;2023-08-24T02:17:25;7.30;;;4.50;;
6117;SDS011;3089;48.202;11.510;2023-08-24T02:19:54;9.23;;;4.90;;
6117;SDS011;3089;48.202;11.510;2023-08-24T02:22:22;7.27;;;5.00;;
6117;SDS011;3089;48.202;11.510;2023-08-24T02:24:50;5.97;;;4.30;;
6117;SDS011;3089;48.202;11.510;2023-08-24T02:27:18;7.97;;;4.80;;
6117;SDS011;3089;48.202;11.510;2023-08-24T02:29:46;7.57;;;4.70;;
6117;SDS011;3089;48.202;11.510;2023-08-24T02:32:15;6.90;;;4.53;;
6117;SDS011;3089;48.202;11.510;2023-08-24T02:34:43;8.70;;;5.10;;
6117;SDS011;3089;48.202;11.510;2023-08-24T02:37:11;7.27;;;5.03;;
6117;SDS011;3089;48.202;11.510;2023-08-24T02:39:39;10.70;;;5.70;;
6117;SDS011;3089;48.202;11.510;2023-08-24T02:42:07;8.63;;;5.03;;
6117;SDS011;3089;48.202;11.510;2023-08-24T02:44:34;6.53;;;4.83;;
6117;SDS011;3089;48.202;11.510;2023-08-24T02:47:02;7.13;;;5.00;;
6117;SDS011;3089;48.202;11.510;2023-08-24T02:49:33;6.80;;;4.67;;
6117;SDS011;3089;48.202;11.510;2023-08-24T02:52:01;11.13;;;4.37;;
6117;SDS011;3089;48.202;11.510;2023-08-24T02:54:29;8.70;;;4.70;;
6117;SDS011;3089;48.202;11.510;2023-08-24T02:56:56;7.20;;;4.87;;
6117;SDS011;3089;48.202;11.510;2023-08-24T02:59:24;8.60;;;4.93;;
6117;SDS011;3089;48.202;11.510;2023-08-24T03:01:52;8.83;;;5.13;;
6117;SDS011;3089;48.202;11.510;2023-08-24T03:04:20;8.83;;;5.10;;
6117;SDS011;3089;48.202;11.510;2023-08-24T03:06:50;7.23;;;5.13;;
6117;SDS011;3089;48.202;11.510;2023-08-24T03:09:18;9.30;;;5.30;;
6117;SDS011;3089;48.202;11.510;2023-08-24T03:11:46;7.77;;;5.10;;
6117;SDS011;3089;48.202;11.510;2023-08-24T03:14:13;7.07;;;4.93;;
6117;SDS011;3089;48.202;11.510;2023-08-24T03:16:41;7.07;;;5.07;;
6117;SDS011;3089;48.202;11.510;2023-08-24T03:19:09;9.90;;;5.27;;
6117;SDS011;3089;48.202;11.510;2023-08-24T03:21:38;7.07;;;4.30;;
6117;SDS011;3089;48.202;11.510;2023-08-24T03:24:07;8.10;;;5.30;;
6117;SDS011;3089;48.202;11.510;2023-08-24T03:26:35;7.20;;;4.87;;
6117;SDS011;3089;48.202;11.510;2023-08-24T03:29:03;8.53;;;5.40;;
6117;SDS011;3089;48.202;11.510;2023-08-24T03:31:31;7.90;;;5.37;;
6117;SDS011;3089;48.202;11.510;2023-08-24T03:33:59;6.63;;;4.80;;
6117;SDS011;3089;48.202;11.510;2023-08-24T03:36:27;5.80;;;4.43;;
6117;SDS011;3089;48.202;11.510;2023-08-24T03:38:54;11.30;;;4.97;;
6117;SDS011;3089;48.202;11.510;2023-08-24T03:41:24;7.70;;;5.30;;
6117;SDS011;3089;48.202;11.510;2023-08-24T03:43:51;9.57;;;4.33;;
6117;SDS011;3089;48.202;11.510;2023-08-24T03:46:19;6.43;;;4.70;;
6117;SDS011;3089;48.202;11.510;2023-08-24T03:48:47;9.40;;;5.53;;
6117;SDS011;3089;48.202;11.510;2023-08-24T03:51:15;7.90;;;4.87;;
6117;SDS011;3089;48.202;11.510;2023-08-24T03:53:43;8.77;;;6.40;;
6117;SDS011;3089;48.202;11.510;2023-08-24T03:56:11;9.20;;;5.47;;
6117;SDS011;3089;48.202;11.510;2023-08-24T03:58:40;8.33;;;5.07;;
6117;SDS011;3089;48.202;11.510;2023-08-24T04:01:09;8.67;;;4.23;;
6117;SDS011;3089;48.202;11.510;2023-08-24T04:03:38;8.03;;;5.00;;
6117;SDS011;3089;48.202;11.510;2023-08-24T04:06:06;7.33;;;5.13;;
6117;SDS011;3089;48.202;11.510;2023-08-24T04:08:34;9.60;;;5.53;;
6117;SDS011;3089;48.202;11.510;2023-08-24T04:11:01;7.10;;;5.23;;
6117;SDS011;3089;48.202;11.510;2023-08-24T04:13:30;9.17;;;5.23;;
6117;SDS011;3089;48.202;11.510;2023-08-24T04:15:59;6.73;;;5.27;;
6117;SDS011;3089;48.202;11.510;2023-08-24T04:18:27;8.40;;;5.13;;
6117;SDS011;3089;48.202;11.510;2023-08-24T04:20:55;9.70;;;4.83;;
6117;SDS011;3089;48.202;11.510;2023-08-24T04:23:26;6.13;;;4.80;;
6117;SDS011;3089;48.202;11.510;2023-08-24T04:25:54;7.17;;;5.40;;
6117;SDS011;3089;48.202;11.510;2023-08-24T04:28:22;8.83;;;5.00;;
6117;SDS011;3089;48.202;11.510;2023-08-24T04:30:50;10.20;;;4.90;;
6117;SDS011;3089;48.202;11.510;2023-08-24T04:33:20;6.50;;;4.77;;
6117;SDS011;3089;48.202;11.510;2023-08-24T04:35:48;7.60;;;4.40;;
6117;SDS011;3089;48.202;11.510;2023-08-24T04:38:17;11.50;;;5.33;;
6117;SDS011;3089;48.202;11.510;2023-08-24T04:40:46;9.73;;;5.20;;
6117;SDS011;3089;48.202;11.510;2023-08-24T04:43:18;6.50;;;5.37;;
6117;SDS011;3089;48.202;11.510;2023-08-24T04:45:47;7.70;;;4.83;;
6117;SDS011;3089;48.202;11.510;2023-08-24T04:48:16;8.50;;;4.87;;
6117;SDS011;3089;48.202;11.510;2023-08-24T04:50:45;11.90;;;5.40;;
6117;SDS011;3089;48.202;11.510;2023-08-24T04:53:15;8.07;;;5.10;;
6117;SDS011;3089;48.202;11.510;2023-08-24T04:55:44;9.03;;;5.40;;
6117;SDS011;3089;48.202;11.510;2023-08-24T04:58:12;8.60;;;5.90;;
6117;SDS011;3089;48.202;11.510;2023-08-24T05:00:40;8.50;;;5.03;;
6117;SDS011;3089;48.202;11.510;2023-08-24T05:03:08;7.63;;;4.63;;
6117;SDS011;3089;48.202;11.510;2023-08-24T05:05:37;10.47;;;5.10;;
6117;SDS011;3089;48.202;11.510;2023-08-24T05:08:06;12.70;;;5.53;;
6117;SDS011;3089;48.202;11.510;2023-08-24T05:10:38;7.60;;;5.53;;
6117;SDS011;3089;48.202;11.510;2023-08-24T05:13:06;8.33;;;5.57;;
6117;SDS011;3089;48.202;11.510;2023-08-24T05:15:34;9.70;;;5.43;;
6117;SDS011;3089;48.202;11.510;2023-08-24T05:18:02;12.10;;;6.43;;
6117;SDS011;3089;48.202;11.510;2023-08-24T05:20:31;8.90;;;5.63;;
6117;SDS011;3089;48.202;11.510;2023-08-24T05:22:59;10.80;;;5.50;;
6117;SDS011;3089;48.202;11.510;2023-08-24T05:25:28;8.70;;;6.07;;
6117;SDS011;3089;48.202;11.510;2023-08-24T05:27:56;8.40;;;5.83;;
6117;SDS011;3089;48.202;11.510;2023-08-24T05:30:24;8.77;;;6.27;;
6117;SDS011;3089;48.202;11.510;2023-08-24T05:32:55;10.43;;;6.33;;
6117;SDS011;3089;48.202;11.510;2023-08-24T05:35:23;11.20;;;6.60;;
6117;SDS011;3089;48.202;11.510;2023-08-24T05:37:53;12.73;;;7.13;;
6117;SDS011;3089;48.202;11.510;2023-08-24T05:40:21;10.90;;;6.53;;
6117;SDS011;3089;48.202;11.510;2023-08-24T05:42:50;10.13;;;7.30;;
6117;SDS011;3089;48.202;11.510;2023-08-24T05:45:19;10.17;;;7.20;;
6117;SDS011;3089;48.202;11.510;2023-08-24T05:47:51;11.53;;;6.13;;
6117;SDS011;3089;48.202;11.510;2023-08-24T05:50:19;15.37;;;7.43;;
6117;SDS011;3089;48.202;11.510;2023-08-24T05:52:47;9.80;;;6.70;;
6117;SDS011;3089;48.202;11.510;2023-08-24T05:55:15;12.20;;;7.37;;
6117;SDS011;3089;48.202;11.510;2023-08-24T05:57:43;12.37;;;7.13;;
6117;SDS011;3089;48.202;11.510;2023-08-24T06:00:13;9.53;;;7.30;;
6117;SDS011;3089;48.202;11.510;2023-08-24T06:02:41;18.50;;;6.43;;
6117;SDS011;3089;48.202;11.510;2023-08-24T06:05:09;10.53;;;5.80;;
6117;SDS011;3089;48.202;11.510;2023-08-24T06:07:37;13.00;;;6.70;;
6117;SDS011;3089;48.202;11.510;2023-08-24T06:10:05;11.97;;;5.77;;
6117;SDS011;3089;48.202;11.510;2023-08-24T06:12:34;10.47;;;6.30;;
6117;SDS011;3089;48.202;11.510;2023-08-24T06:15:02;11.83;;;6.07;;
6117;SDS011;3089;48.202;11.510;2023-08-24T06:17:32;9.30;;;6.50;;
6117;SDS011;3089;48.202;11.510;2023-08-24T06:20:02;14.27;;;7.20;;
6117;SDS011;3089;48.202;11.510;2023-08-24T06:22:30;10.13;;;5.97;;
6117;SDS011;3089;48.202;11.510;2023-08-24T06:24:58;9.43;;;6.63;;
6117;SDS011;3089;48.202;11.510;2023-08-24T06:27:26;12.63;;;6.17;;
6117;SDS011;3089;48.202;11.510;2023-08-24T06:29:54;9.17;;;6.30;;
6117;SDS011;3089;48.202;11.510;2023-08-24T06:32:22;7.07;;;5.50;;
6117;SDS011;3089;48.202;11.510;2023-08-24T06:34:51;10.60;;;6.07;;
6117;SDS011;3089;48.202;11.510;2023-08-24T06:37:20;9.07;;;5.60;;
6117;SDS011;3089;48.202;11.510;2023-08-24T06:39:48;13.57;;;5.90;;
6117;SDS011;3089;48.202;11.510;2023-08-24T06:42:16;13.33;;;6.77;;
6117;SDS011;3089;48.202;11.510;2023-08-24T06:44:44;12.90;;;7.50;;
6117;SDS011;3089;48.202;11.510;2023-08-24T06:47:16;9.87;;;5.43;;
6117;SDS011;3089;48.202;11.510;2023-08-24T06:49:43;15.33;;;6.10;;
6117;SDS011;3089;48.202;11.510;2023-08-24T06:52:13;8.00;;;5.33;;
6117;SDS011;3089;48.202;11.510;2023-08-24T06:54:41;10.90;;;4.70;;
6117;SDS011;3089;48.202;11.510;2023-08-24T06:57:08;7.87;;;4.80;;
6117;SDS011;3089;48.202;11.510;2023-08-24T06:59:36;11.37;;;4.80;;
6117;SDS011;3089;48.202;11.510;2023-08-24T07:02:04;8.67;;;6.10;;
6117;SDS011;3089;48.202;11.510;2023-08-24T07:04:32;10.23;;;4.77;;
6117;SDS011;3089;48.202;11.510;2023-08-24T07:07:00;8.53;;;4.90;;
6117;SDS011;3089;48.202;11.510;2023-08-24T07:09:29;11.43;;;5.40;;
6117;SDS011;3089;48.202;11.510;2023-08-24T07:11:57;7.90;;;5.57;;
6117;SDS011;3089;48.202;11.510;2023-08-24T07:14:25;9.13;;;5.10;;
6117;SDS011;3089;48.202;11.510;2023-08-24T07:16:53;9.20;;;5.50;;
6117;SDS011;3089;48.202;11.510;2023-08-24T07:19:21;9.97;;;5.10;;
6117;SDS011;3089;48.202;11.510;2023-08-24T07:21:49;9.73;;;5.40;;
6117;SDS011;3089;48.202;11.510;2023-08-24T07:24:17;9.70;;;4.77;;
6117;SDS011;3089;48.202;11.510;2023-08-24T07:27:01;11.43;;;5.40;;
6117;SDS011;3089;48.202;11.510;2023-08-24T07:29:30;8.30;;;5.20;;
6117;SDS011;3089;48.202;11.510;2023-08-24T07:31:57;9.33;;;5.10;;
6117;SDS011;3089;48.202;11.510;2023-08-24T07:34:26;14.70;;;5.10;;
6117;SDS011;3089;48.202;11.510;2023-08-24T07:36:55;8.27;;;5.40;;
6117;SDS011;3089;48.202;11.510;2023-08-24T07:39:23;7.50;;;4.80;;
6117;SDS011;3089;48.202;11.510;2023-08-24T07:41:51;10.90;;;5.73;;
6117;SDS011;3089;48.202;11.510;2023-08-24T07:44:21;10.20;;;5.17;;
6117;SDS011;3089;48.202;11.510;2023-08-24T07:46:49;9.33;;;4.60;;
6117;SDS011;3089;48.202;11.510;2023-08-24T07:49:16;11.80;;;5.50;;
6117;SDS011;3089;48.202;11.510;2023-08-24T07:51:44;7.47;;;5.10;;
6117;SDS011;3089;48.202;11.510;2023-08-24T07:54:13;13.53;;;5.40;;
6117;SDS011;3089;48.202;11.510;2023-08-24T07:56:41;9.10;;;5.40;;
6117;SDS011;3089;48.202;11.510;2023-08-24T07:59:09;9.87;;;6.10;;
6117;SDS011;3089;48.202;11.510;2023-08-24T08:01:38;8.27;;;4.37;;
6117;SDS011;3089;48.202;11.510;2023-08-24T08:04:06;10.77;;;6.03;;
6117;SDS011;3089;48.202;11.510;2023-08-24T08:06:34;9.30;;;5.30;;
6117;SDS011;3089;48.202;11.510;2023-08-24T08:09:02;8.10;;;5.07;;
6117;SDS011;3089;48.202;11.510;2023-08-24T08:11:30;12.37;;;5.23;;
6117;SDS011;3089;48.202;11.510;2023-08-24T08:13:58;10.47;;;5.30;;
6117;SDS011;3089;48.202;11.510;2023-08-24T08:16:26;15.03;;;6.37;;
6117;SDS011;3089;48.202;11.510;2023-08-24T08:18:55;9.90;;;5.40;;
6117;SDS011;3089;48.202;11.510;2023-08-24T08:21:23;10.53;;;6.00;;
6117;SDS011;3089;48.202;11.510;2023-08-24T08:23:50;13.87;;;5.47;;
6117;SDS011;3089;48.202;11.510;2023-08-24T08:26:18;7.50;;;5.03;;
6117;SDS011;3089;48.202;11.510;2023-08-24T08:28:46;8.77;;;5.70;;
6117;SDS011;3089;48.202;11.510;2023-08-24T08:31:14;11.40;;;5.97;;
6117;SDS011;3089;48.202;11.510;2023-08-24T08:33:44;8.77;;;5.10;;
6117;SDS011;3089;48.202;11.510;2023-08-24T08:36:13;10.80;;;5.60;;
6117;SDS011;3089;48.202;11.510;2023-08-24T08:38:41;11.50;;;5.97;;
6117;SDS011;3089;48.202;11.510;2023-08-24T08:41:09;14.70;;;5.10;;
6117;SDS011;3089;48.202;11.510;2023-08-24T08:43:37;7.03;;;5.33;;
6117;SDS011;3089;48.202;11.510;2023-08-24T08:46:05;10.37;;;6.40;;
6117;SDS011;3089;48.202;11.510;2023-08-24T08:48:33;7.93;;;5.00;;
6117;SDS011;3089;48.202;11.510;2023-08-24T08:51:03;7.50;;;5.10;;
6117;SDS011;3089;48.202;11.510;2023-08-24T08:53:33;8.80;;;5.23;;
6117;SDS011;3089;48.202;11.510;2023-08-24T08:56:01;12.60;;;5.83;;
6117;SDS011;3089;48.202;11.510;2023-08-24T08:58:31;9.07;;;4.83;;
6117;SDS011;3089;48.202;11.510;2023-08-24T09:00:59;9.37;;;5.37;;
6117;SDS011;3089;48.202;11.510;2023-08-24T09:03:30;8.90;;;4.90;;
6117;SDS011;3089;48.202;11.510;2023-08-24T09:05:59;7.93;;;4.90;;
6117;SDS011;3089;48.202;11.510;2023-08-24T09:08:27;9.70;;;5.30;;
6117;SDS011;3089;48.202;11.510;2023-08-24T09:10:57;9.07;;;6.07;;
6117;SDS011;3089;48.202;11.510;2023-08-24T09:13:26;13.87;;;5.43;;
6117;SDS011;3089;48.202;11.510;2023-08-24T09:15:54;9.80;;;5.77;;
6117;SDS011;3089;48.202;11.510;2023-08-24T09:18:33;9.20;;;5.60;;
6117;SDS011;3089;48.202;11.510;2023-08-24T09:21:13;14.90;;;5.57;;
6117;SDS011;3089;48.202;11.510;2023-08-24T09:23:43;10.50;;;5.60;;
6117;SDS011;3089;48.202;11.510;2023-08-24T09:26:13;15.70;;;6.33;;
6117;SDS011;3089;48.202;11.510;2023-08-24T09:28:42;13.03;;;5.67;;
6117;SDS011;3089;48.202;11.510;2023-08-24T09:31:11;6.70;;;5.37;;
6117;SDS011;3089;48.202;11.510;2023-08-24T09:33:42;10.90;;;5.73;;
6117;SDS011;3089;48.202;11.510;2023-08-24T09:36:12;11.50;;;5.40;;
6117;SDS011;3089;48.202;11.510;2023-08-24T09:38:45;9.43;;;5.50;;
6117;SDS011;3089;48.202;11.510;2023-08-24T09:41:15;15.17;;;5.47;;
6117;SDS011;3089;48.202;11.510;2023-08-24T09:43:43;9.80;;;5.67;;
6117;SDS011;3089;48.202;11.510;2023-08-24T09:46:11;8.33;;;5.57;;
6117;SDS011;3089;48.202;11.510;2023-08-24T09:48:39;13.80;;;5.63;;
6117;SDS011;3089;48.202;11.510;2023-08-24T09:51:07;10.80;;;5.23;;
6117;SDS011;3089;48.202;11.510;2023-08-24T09:53:36;10.20;;;5.30;;
6117;SDS011;3089;48.202;11.510;2023-08-24T09:56:07;10.63;;;5.23;;
6117;SDS011;3089;48.202;11.510;2023-08-24T09:58:38;13.50;;;6.00;;
6117;SDS011;3089;48.202;11.510;2023-08-24T10:01:06;9.77;;;5.00;;
6117;SDS011;3089;48.202;11.510;2023-08-24T10:03:36;9.17;;;5.47;;
6117;SDS011;3089;48.202;11.510;2023-08-24T10:06:07;10.03;;;4.97;;
6117;SDS011;3089;48.202;11.510;2023-08-24T10:08:39;10.27;;;5.17;;
6117;SDS011;3089;48.202;11.510;2023-08-24T10:11:10;8.77;;;5.40;;
6117;SDS011;3089;48.202;11.510;2023-08-24T10:13:47;12.80;;;5.80;;
6117;SDS011;3089;48.202;11.510;2023-08-24T10:16:19;9.57;;;5.27;;
6117;SDS011;3089;48.202;11.510;2023-08-24T10:18:48;16.60;;;5.13;;
6117;SDS011;3089;48.202;11.510;2023-08-24T10:21:17;7.30;;;4.80;;
6117;SDS011;3089;48.202;11.510;2023-08-24T10:23:46;8.00;;;4.47;;
6117;SDS011;3089;48.202;11.510;2023-08-24T10:26:14;8.07;;;5.17;;
6117;SDS011;3089;48.202;11.510;2023-08-24T10:28:46;12.43;;;4.83;;
6117;SDS011;3089;48.202;11.510;2023-08-24T10:31:14;9.50;;;5.77;;
6117;SDS011;3089;48.202;11.510;2023-08-24T10:33:43;7.90;;;4.90;;
6117;SDS011;3089;48.202;11.510;2023-08-24T10:36:12;7.63;;;4.83;;
6117;SDS011;3089;48.202;11.510;2023-08-24T10:38:41;9.60;;;4.97;;
6117;SDS011;3089;48.202;11.510;2023-08-24T10:41:09;8.07;;;5.10;;
6117;SDS011;3089;48.202;11.510;2023-08-24T10:43:41;10.73;;;4.77;;
6117;SDS011;3089;48.202;11.510;2023-08-24T10:46:17;12.10;;;5.30;;
6117;SDS011;3089;48.202;11.510;2023-08-24T10:48:58;7.80;;;4.83;;
6117;SDS011;3089;48.202;11.510;2023-08-24T10:51:27;6.77;;;5.03;;
6117;SDS011;3089;48.202;11.510;2023-08-24T10:53:57;7.60;;;4.37;;
6117;SDS011;3089;48.202;11.510;2023-08-24T10:56:29;9.07;;;4.80;;
6117;SDS011;3089;48.202;11.510;2023-08-24T10:59:14;7.07;;;4.27;;
6117;SDS011;3089;48.202;11.510;2023-08-24T11:01:43;8.03;;;4.63;;
6117;SDS011;3089;48.202;11.510;2023-08-24T11:04:22;7.37;;;5.10;;
6117;SDS011;3089;48.202;11.510;2023-08-24T11:06:52;8.70;;;4.80;;
6117;SDS011;3089;48.202;11.510;2023-08-24T11:09:21;9.80;;;4.80;;
6117;SDS011;3089;48.202;11.510;2023-08-24T11:11:59;12.00;;;4.60;;
6117;SDS011;3089;48.202;11.510;2023-08-24T11:14:31;6.50;;;4.23;;
6117;SDS011;3089;48.202;11.510;2023-08-24T11:17:18;14.37;;;5.00;;
6117;SDS011;3089;48.202;11.510;2023-08-24T11:19:48;5.80;;;3.83;;
6117;SDS011;3089;48.202;11.510;2023-08-24T11:22:16;7.30;;;3.60;;
6117;SDS011;3089;48.202;11.510;2023-08-24T11:24:44;7.90;;;4.00;;
6117;SDS011;3089;48.202;11.510;2023-08-24T11:27:12;6.40;;;3.97;;
6117;SDS011;3089;48.202;11.510;2023-08-24T11:29:42;10.57;;;4.07;;
6117;SDS011;3089;48.202;11.510;2023-08-24T11:32:09;13.73;;;4.67;;
6117;SDS011;3089;48.202;11.510;2023-08-24T11:34:37;7.60;;;4.60;;
6117;SDS011;3089;48.202;11.510;2023-08-24T11:37:06;10.27;;;4.90;;
6117;SDS011;3089;48.202;11.510;2023-08-24T11:39:45;9.20;;;4.50;;
6117;SDS011;3089;48.202;11.510;2023-08-24T11:42:13;9.50;;;4.10;;
6117;SDS011;3089;48.202;11.510;2023-08-24T11:44:45;6.73;;;3.70;;
6117;SDS011;3089;48.202;11.510;2023-08-24T11:47:14;6.50;;;3.77;;
6117;SDS011;3089;48.202;11.510;2023-08-24T11:49:42;8.27;;;4.43;;
6117;SDS011;3089;48.202;11.510;2023-08-24T11:52:10;12.30;;;4.47;;
6117;SDS011;3089;48.202;11.510;2023-08-24T11:54:41;10.17;;;3.93;;
6117;SDS011;3089;48.202;11.510;2023-08-24T11:57:10;7.13;;;4.20;;
6117;SDS011;3089;48.202;11.510;2023-08-24T11:59:38;13.57;;;4.37;;
6117;SDS011;3089;48.202;11.510;2023-08-24T12:02:07;8.70;;;4.30;;
6117;SDS011;3089;48.202;11.510;2023-08-24T12:04:40;7.73;;;4.70;;
6117;SDS011;3089;48.202;11.510;2023-08-24T12:07:10;6.70;;;3.63;;
6117;SDS011;3089;48.202;11.510;2023-08-24T12:09:38;8.97;;;3.87;;
6117;SDS011;3089;48.202;11.510;2023-08-24T12:12:11;11.70;;;4.27;;
6117;SDS011;3089;48.202;11.510;2023-08-24T12:14:40;8.07;;;4.00;;
6117;SDS011;3089;48.202;11.510;2023-08-24T12:17:10;9.87;;;4.13;;
6117;SDS011;3089;48.202;11.510;2023-08-24T12:19:40;11.53;;;3.93;;
6117;SDS011;3089;48.202;11.510;2023-08-24T12:22:12;8.00;;;4.00;;
6117;SDS011;3089;48.202;11.510;2023-08-24T12:24:42;10.73;;;4.20;;
6117;SDS011;3089;48.202;11.510;2023-08-24T12:27:16;13.03;;;4.47;;
6117;SDS011;3089;48.202;11.510;2023-08-24T12:29:45;9.63;;;3.73;;
6117;SDS011;3089;48.202;11.510;2023-08-24T12:32:14;11.20;;;3.70;;
6117;SDS011;3089;48.202;11.510;2023-08-24T12:34:46;15.30;;;3.77;;
6117;SDS011;3089;48.202;11.510;2023-08-24T12:37:13;7.37;;;4.17;;
6117;SDS011;3089;48.202;11.510;2023-08-24T12:39:41;17.67;;;4.20;;
6117;SDS011;3089;48.202;11.510;2023-08-24T12:42:09;11.13;;;3.80;;
6117;SDS011;3089;48.202;11.510;2023-08-24T12:44:37;13.73;;;4.47;;
6117;SDS011;3089;48.202;11.510;2023-08-24T12:47:05;14.00;;;3.97;;
6117;SDS011;3089;48.202;11.510;2023-08-24T12:49:34;9.03;;;3.87;;
6117;SDS011;3089;48.202;11.510;2023-08-24T12:52:02;9.23;;;4.00;;
6117;SDS011;3089;48.202;11.510;2023-08-24T12:54:31;8.90;;;3.73;;
6117;SDS011;3089;48.202;11.510;2023-08-24T12:56:59;12.90;;;3.80;;
6117;SDS011;3089;48.202;11.510;2023-08-24T12:59:27;6.77;;;4.03;;
6117;SDS011;3089;48.202;11.510;2023-08-24T13:01:55;8.70;;;4.03;;
6117;SDS011;3089;48.202;11.510;2023-08-24T13:04:22;10.43;;;4.23;;
6117;SDS011;3089;48.202;11.510;2023-08-24T13:06:52;10.23;;;4.00;;
6117;SDS011;3089;48.202;11.510;2023-08-24T13:09:19;10.03;;;4.40;;
6117;SDS011;3089;48.202;11.510;2023-08-24T13:11:48;6.90;;;3.87;;
6117;SDS011;3089;48.202;11.510;2023-08-24T13:14:16;7.70;;;3.97;;
6117;SDS011;3089;48.202;11.510;2023-08-24T13:16:44;10.10;;;3.97;;
6117;SDS011;3089;48.202;11.510;2023-08-24T13:19:12;6.70;;;3.30;;
6117;SDS011;3089;48.202;11.510;2023-08-24T13:21:40;7.37;;;3.83;;
6117;SDS011;3089;48.202;11.510;2023-08-24T13:24:09;7.17;;;3.77;;
6117;SDS011;3089;48.202;11.510;2023-08-24T13:26:37;7.77;;;3.67;;
6117;SDS011;3089;48.202;11.510;2023-08-24T13:29:07;15.10;;;4.43;;
6117;SDS011;3089;48.202;11.510;2023-08-24T13:31:34;15.93;;;4.03;;
6117;SDS011;3089;48.202;11.510;2023-08-24T13:34:02;10.33;;;3.80;;
6117;SDS011;3089;48.202;11.510;2023-08-24T13:36:33;9.80;;;3.63;;
6117;SDS011;3089;48.202;11.510;2023-08-24T13:39:01;6.93;;;3.33;;
6117;SDS011;3089;48.202;11.510;2023-08-24T13:41:32;14.23;;;4.00;;
6117;SDS011;3089;48.202;11.510;2023-08-24T13:43:59;6.10;;;3.30;;
6117;SDS011;3089;48.202;11.510;2023-08-24T13:46:27;13.73;;;3.77;;
6117;SDS011;3089;48.202;11.510;2023-08-24T13:48:55;10.93;;;4.03;;
6117;SDS011;3089;48.202;11.510;2023-08-24T13:51:23;11.67;;;3.90;;
6117;SDS011;3089;48.202;11.510;2023-08-24T13:53:51;8.97;;;3.83;;
6117;SDS011;3089;48.202;11.510;2023-08-24T13:56:19;10.87;;;3.80;;
6117;SDS011;3089;48.202;11.510;2023-08-24T13:58:48;12.80;;;3.90;;
6117;SDS011;3089;48.202;11.510;2023-08-24T14:01:16;10.30;;;3.90;;
6117;SDS011;3089;48.202;11.510;2023-08-24T14:03:44;8.00;;;3.50;;
6117;SDS011;3089;48.202;11.510;2023-08-24T14:06:11;11.67;;;4.30;;
6117;SDS011;3089;48.202;11.510;2023-08-24T14:08:40;13.10;;;4.27;;
6117;SDS011;3089;48.202;11.510;2023-08-24T14:11:08;9.63;;;3.20;;
6117;SDS011;3089;48.202;11.510;2023-08-24T14:13:38;10.90;;;4.40;;
6117;SDS011;3089;48.202;11.510;2023-08-24T14:16:07;10.43;;;3.57;;
6117;SDS011;3089;48.202;11.510;2023-08-24T14:18:35;13.13;;;4.13;;
6117;SDS011;3089;48.202;11.510;2023-08-24T14:21:04;7.60;;;3.57;;
6117;SDS011;3089;48.202;11.510;2023-08-24T14:23:33;10.00;;;3.80;;
6117;SDS011;3089;48.202;11.510;2023-08-24T14:26:01;8.17;;;4.00;;
6117;SDS011;3089;48.202;11.510;2023-08-24T14:31:16;10.00;;;4.63;;
6117;SDS011;3089;48.202;11.510;2023-08-24T14:33:44;10.03;;;4.70;;
6117;SDS011;3089;48.202;11.510;2023-08-24T14:36:12;11.77;;;3.63;;
6117;SDS011;3089;48.202;11.510;2023-08-24T14:38:40;8.07;;;3.70;;
6117;SDS011;3089;48.202;11.510;2023-08-24T14:41:08;17.50;;;4.10;;
6117;SDS011;3089;48.202;11.510;2023-08-24T14:43:36;7.43;;;3.50;;
6117;SDS011;3089;48.202;11.510;2023-08-24T14:46:05;8.73;;;4.60;;
6117;SDS011;3089;48.202;11.510;2023-08-24T14:48:34;9.63;;;3.63;;
6117;SDS011;3089;48.202;11.510;2023-08-24T14:51:02;10.50;;;3.37;;
6117;SDS011;3089;48.202;11.510;2023-08-24T14:53:30;9.57;;;4.13;;
6117;SDS011;3089;48.202;11.510;2023-08-24T14:55:58;18.87;;;4.87;;
6117;SDS011;3089;48.202;11.510;2023-08-24T14:58:26;17.67;;;5.20;;
6117;SDS011;3089;48.202;11.510;2023-08-24T15:00:57;10.87;;;4.23;;
6117;SDS011;3089;48.202;11.510;2023-08-24T15:03:25;15.53;;;4.40;;
6117;SDS011;3089;48.202;11.510;2023-08-24T15:05:57;12.53;;;4.07;;
6117;SDS011;3089;48.202;11.510;2023-08-24T15:08:27;13.83;;;4.20;;